createdAt,value
2018-12-16T00:03:37.788Z,14.50
2018-12-16T00:08:33.761Z,14.93
2018-12-16T00:13:29.592Z,15.83
2018-12-16T00:18:25.419Z,14.40
2018-12-16T00:23:22.011Z,16.27
2018-12-16T00:28:17.821Z,18.77
2018-12-16T00:33:13.620Z,18.00
2018-12-16T00:38:09.591Z,16.50
2018-12-16T00:43:05.357Z,17.57
2018-12-16T00:48:01.132Z,16.67
2018-12-16T00:52:56.931Z,14.07
2018-12-16T00:57:52.720Z,16.27
2018-12-16T01:02:48.481Z,17.97
2018-12-16T01:07:44.285Z,17.53
2018-12-16T01:12:40.100Z,20.23
2018-12-16T01:17:35.898Z,17.27
2018-12-16T01:22:31.646Z,17.73
2018-12-16T01:27:27.421Z,17.13
2018-12-16T01:32:23.245Z,16.60
2018-12-16T01:37:19.020Z,17.53
2018-12-16T01:42:14.882Z,17.33
2018-12-16T01:47:10.671Z,17.90
2018-12-16T01:52:06.456Z,18.03
2018-12-16T01:57:02.275Z,19.77
2018-12-16T02:01:58.059Z,19.07
2018-12-16T02:06:53.889Z,19.67
2018-12-16T02:11:49.648Z,16.57
2018-12-16T02:16:45.424Z,18.17
2018-12-16T02:21:41.212Z,17.17
2018-12-16T02:26:37.135Z,17.07
2018-12-16T02:31:32.954Z,18.07
2018-12-16T02:36:28.714Z,19.47
2018-12-16T02:41:24.487Z,20.40
2018-12-16T02:46:20.300Z,18.13
2018-12-16T02:51:16.396Z,18.10
2018-12-16T02:56:12.197Z,20.50
2018-12-16T03:01:07.998Z,20.93
2018-12-16T03:06:03.814Z,19.27
2018-12-16T03:10:59.590Z,19.30
2018-12-16T03:15:55.420Z,19.43
2018-12-16T03:20:51.212Z,21.93
2018-12-16T03:25:46.979Z,19.33
2018-12-16T03:30:42.796Z,20.23
2018-12-16T03:35:38.587Z,18.80
2018-12-16T03:40:34.470Z,18.17
2018-12-16T03:45:30.591Z,22.90
2018-12-16T03:50:26.488Z,18.47
2018-12-16T03:55:22.287Z,21.63
2018-12-16T04:00:18.123Z,19.67
2018-12-16T04:05:13.906Z,21.33
2018-12-16T04:10:09.702Z,19.77
2018-12-16T04:15:05.655Z,21.17
2018-12-16T04:20:01.461Z,18.70
2018-12-16T04:24:57.232Z,19.77
2018-12-16T04:29:53.032Z,19.20
2018-12-16T04:34:48.922Z,19.90
2018-12-16T04:39:44.715Z,18.80
2018-12-16T04:44:40.492Z,21.53
2018-12-16T04:49:36.498Z,18.93
2018-12-16T04:54:32.307Z,20.37
2018-12-16T04:59:28.145Z,17.73
2018-12-16T05:04:23.958Z,18.90
2018-12-16T05:09:19.734Z,18.60
2018-12-16T05:14:15.505Z,20.83
2018-12-16T05:19:11.335Z,17.63
2018-12-16T05:24:07.224Z,17.83
2018-12-16T05:29:03.142Z,15.87
2018-12-16T05:33:58.974Z,17.47
2018-12-16T05:38:54.746Z,19.97
2018-12-16T05:43:50.516Z,17.43
2018-12-16T05:48:46.359Z,18.80
2018-12-16T05:53:48.393Z,19.57
2018-12-16T05:58:40.012Z,17.97
2018-12-16T06:03:35.836Z,16.90
2018-12-16T06:08:31.634Z,16.70
2018-12-16T06:13:27.422Z,18.93
2018-12-16T06:18:23.210Z,20.80
2018-12-16T06:23:19.013Z,17.20
2018-12-16T06:28:14.811Z,19.47
2018-12-16T06:33:10.599Z,17.67
2018-12-16T06:38:06.379Z,19.33
2018-12-16T06:43:02.207Z,20.03
2018-12-16T06:47:58.002Z,20.10
2018-12-16T06:52:53.799Z,21.83
2018-12-16T06:57:49.609Z,17.43
2018-12-16T07:02:47.454Z,20.53
2018-12-16T07:07:43.450Z,19.40
2018-12-16T07:12:39.249Z,19.73
2018-12-16T07:17:35.077Z,20.47
2018-12-16T07:22:30.882Z,17.50
2018-12-16T07:27:26.976Z,20.63
2018-12-16T07:32:22.899Z,20.73
2018-12-16T07:37:19.360Z,21.00
2018-12-16T07:42:15.367Z,19.73
2018-12-16T07:47:11.261Z,23.00
2018-12-16T07:52:07.085Z,21.50
2018-12-16T07:57:03.023Z,21.00
2018-12-16T08:01:58.815Z,21.40
2018-12-16T08:06:54.611Z,23.33
2018-12-16T08:11:50.402Z,22.37
2018-12-16T08:16:47.068Z,24.10
2018-12-16T08:21:42.878Z,23.17
2018-12-16T08:26:38.654Z,26.27
2018-12-16T08:31:34.539Z,23.00
2018-12-16T08:36:30.327Z,21.23
2018-12-16T08:41:26.132Z,20.70
2018-12-16T08:46:21.955Z,24.00
2018-12-16T08:51:17.748Z,20.57
2018-12-16T08:56:13.534Z,23.40
2018-12-16T09:01:09.320Z,26.63
2018-12-16T09:06:05.103Z,22.80
2018-12-16T09:11:01.006Z,24.40
2018-12-16T09:15:56.818Z,22.80
2018-12-16T09:20:52.637Z,23.63
2018-12-16T09:25:48.424Z,21.70
2018-12-16T09:30:44.211Z,23.73
2018-12-16T09:35:39.996Z,21.67
2018-12-16T09:40:35.771Z,22.13
2018-12-16T09:45:31.550Z,23.27
2018-12-16T09:50:27.338Z,26.67
2018-12-16T09:55:23.114Z,23.57
2018-12-16T10:00:18.903Z,23.50
2018-12-16T10:05:14.996Z,24.53
2018-12-16T10:10:10.753Z,23.17
2018-12-16T10:15:06.699Z,22.40
2018-12-16T10:20:03.124Z,25.17
2018-12-16T10:24:58.912Z,21.60
2018-12-16T10:29:54.691Z,23.30
2018-12-16T10:34:50.495Z,23.67
2018-12-16T10:39:46.305Z,22.77
2018-12-16T10:44:42.136Z,24.00
2018-12-16T10:49:37.910Z,20.60
2018-12-16T10:54:33.709Z,23.10
2018-12-16T10:59:29.581Z,20.90
2018-12-16T11:04:25.338Z,22.70
2018-12-16T11:09:21.112Z,23.20
2018-12-16T11:14:16.932Z,22.03
2018-12-16T11:19:12.701Z,22.40
2018-12-16T11:24:08.526Z,21.57
2018-12-16T11:29:04.327Z,24.23
2018-12-16T11:34:00.147Z,24.40
2018-12-16T11:38:55.926Z,24.10
2018-12-16T11:43:51.742Z,27.20
2018-12-16T11:48:47.516Z,22.80
2018-12-16T11:53:43.268Z,27.63
2018-12-16T11:58:39.516Z,24.33
2018-12-16T12:03:35.317Z,24.87
2018-12-16T12:08:31.110Z,25.47
2018-12-16T12:13:27.003Z,28.17
2018-12-16T12:18:22.800Z,25.10
2018-12-16T12:23:18.590Z,24.70
2018-12-16T12:28:14.473Z,24.97
2018-12-16T12:33:10.338Z,26.90
2018-12-16T12:38:06.113Z,26.10
2018-12-16T12:43:01.963Z,23.57
2018-12-16T12:47:57.760Z,24.17
2018-12-16T12:52:53.561Z,24.20
2018-12-16T12:57:49.368Z,27.57
2018-12-16T13:02:45.178Z,21.30
2018-12-16T13:07:41.179Z,25.80
2018-12-16T13:12:36.990Z,27.90
2018-12-16T13:17:32.775Z,31.53
2018-12-16T13:22:28.546Z,26.67
2018-12-16T13:27:24.406Z,23.50
2018-12-16T13:32:20.235Z,26.03
2018-12-16T13:37:16.070Z,25.10
2018-12-16T13:42:11.866Z,24.27
2018-12-16T13:47:07.699Z,25.53
2018-12-16T13:52:03.584Z,24.03
2018-12-16T13:56:59.366Z,26.07
2018-12-16T14:01:55.212Z,25.47
2018-12-16T14:06:51.296Z,26.20
2018-12-16T14:11:47.055Z,25.90
2018-12-16T14:16:42.816Z,26.70
2018-12-16T14:21:38.598Z,25.33
2018-12-16T14:26:34.368Z,27.60
2018-12-16T14:31:30.129Z,24.53
2018-12-16T14:36:25.902Z,25.23
2018-12-16T14:41:21.718Z,28.03
2018-12-16T14:46:17.492Z,27.57
2018-12-16T14:51:13.278Z,25.60
2018-12-16T14:56:09.078Z,26.00
2018-12-16T15:01:04.872Z,28.80
2018-12-16T15:06:00.815Z,29.00
2018-12-16T15:10:56.636Z,26.60
2018-12-16T15:15:52.453Z,28.60
2018-12-16T15:20:48.291Z,26.83
2018-12-16T15:25:44.158Z,27.20
2018-12-16T15:30:39.988Z,35.20
2018-12-16T15:35:35.767Z,31.40
2018-12-16T15:40:31.694Z,28.43
2018-12-16T15:45:27.484Z,27.47
2018-12-16T15:50:23.303Z,25.53
2018-12-16T15:55:19.140Z,29.67
2018-12-16T16:00:14.928Z,27.70
2018-12-16T16:05:10.839Z,29.13
2018-12-16T16:10:06.818Z,30.47
2018-12-16T16:15:02.844Z,33.73
2018-12-16T16:19:58.606Z,29.40
2018-12-16T16:24:54.524Z,31.23
2018-12-16T16:29:50.322Z,34.40
2018-12-16T16:34:46.134Z,30.47
2018-12-16T16:39:41.908Z,29.60
2018-12-16T16:44:37.690Z,28.97
2018-12-16T16:49:33.460Z,29.43
2018-12-16T16:54:29.238Z,28.47
2018-12-16T16:59:25.117Z,37.50
2018-12-16T17:04:21.054Z,31.37
2018-12-16T17:09:16.859Z,35.87
2018-12-16T17:14:12.791Z,32.03
2018-12-16T17:19:09.106Z,29.90
2018-12-16T17:24:04.946Z,32.37
2018-12-16T17:29:00.831Z,34.93
2018-12-16T17:33:56.937Z,39.80
2018-12-16T17:38:52.720Z,35.53
2018-12-16T17:43:48.530Z,35.93
2018-12-16T17:48:44.337Z,34.47
2018-12-16T17:53:40.372Z,33.80
2018-12-16T17:58:36.180Z,36.20
2018-12-16T18:03:32.020Z,34.33
2018-12-16T18:08:27.801Z,39.20
2018-12-16T18:13:23.601Z,32.47
2018-12-16T18:18:19.384Z,33.77
2018-12-16T18:23:15.210Z,36.60
2018-12-16T18:28:11.164Z,30.07
2018-12-16T18:33:07.302Z,29.77
2018-12-16T18:38:03.387Z,28.13
2018-12-16T18:42:59.179Z,31.83
2018-12-16T18:47:54.926Z,27.10
2018-12-16T18:52:50.695Z,31.80
2018-12-16T18:57:46.547Z,28.83
2018-12-16T19:02:42.442Z,30.47
2018-12-16T19:07:38.196Z,28.23
2018-12-16T19:12:34.094Z,31.03
2018-12-16T19:17:29.914Z,34.70
2018-12-16T19:22:25.739Z,34.60
2018-12-16T19:27:21.528Z,31.43
2018-12-16T19:32:17.316Z,31.23
2018-12-16T19:37:13.142Z,30.00
2018-12-16T19:42:08.909Z,35.97
2018-12-16T19:47:04.697Z,31.10
2018-12-16T19:52:00.767Z,34.50
2018-12-16T19:56:56.863Z,33.50
2018-12-16T20:01:52.673Z,31.17
2018-12-16T20:06:48.471Z,32.17
2018-12-16T20:11:44.307Z,36.83
2018-12-16T20:16:40.132Z,49.33
2018-12-16T20:21:35.943Z,35.47
2018-12-16T20:26:32.260Z,32.57
2018-12-16T20:31:28.070Z,35.47
2018-12-16T20:36:23.903Z,34.20
2018-12-16T20:41:19.697Z,35.27
2018-12-16T20:46:15.485Z,34.23
2018-12-16T20:51:11.251Z,34.83
2018-12-16T20:56:07.087Z,34.50
2018-12-16T21:01:02.985Z,35.13
2018-12-16T21:05:58.786Z,37.73
2018-12-16T21:10:54.580Z,35.43
2018-12-16T21:15:56.489Z,32.63
2018-12-16T21:20:52.308Z,36.63
2018-12-16T21:25:48.102Z,33.70
2018-12-16T21:30:43.924Z,34.50
2018-12-16T21:35:39.737Z,33.30
2018-12-16T21:40:35.534Z,30.63
2018-12-16T21:45:31.305Z,34.30
2018-12-16T21:50:27.074Z,31.57
2018-12-16T21:55:22.871Z,30.90
2018-12-16T22:00:18.737Z,31.67
2018-12-16T22:05:15.247Z,33.67
2018-12-16T22:10:11.070Z,33.00
2018-12-16T22:15:06.949Z,29.43
2018-12-16T22:20:03.350Z,33.00
2018-12-16T22:24:59.097Z,35.10
2018-12-16T22:29:54.901Z,33.17
2018-12-16T22:34:50.737Z,38.63
2018-12-16T22:39:46.632Z,34.93
2018-12-16T22:44:42.381Z,31.53
2018-12-16T22:49:38.176Z,36.33
2018-12-16T22:54:33.962Z,37.57
2018-12-16T22:59:29.745Z,31.77
2018-12-16T23:04:25.523Z,36.60
2018-12-16T23:09:21.426Z,36.73
2018-12-16T23:14:17.233Z,33.50
2018-12-16T23:19:13.012Z,39.03
2018-12-16T23:24:09.806Z,34.90
2018-12-16T23:29:05.589Z,34.47
2018-12-16T23:34:01.405Z,36.10
2018-12-16T23:38:57.172Z,35.90
2018-12-16T23:43:52.940Z,35.20
2018-12-16T23:48:48.753Z,33.30
2018-12-16T23:53:44.575Z,40.13
2018-12-16T23:58:40.363Z,35.87
